Arapaho — WCX9424 — position and weather

sailwx.info

Track history (hours):
 
Tides and Currents Weather Stations Pressure Air Temp Water Temp Dewpoint Dewpoint Depression Visibility Wind Speed Wind Dir Waves Ship Positions

Arapaho

Owner: SAUSE BROTHERS OCEAN TOWING CO INC, LONG BEACH, CA. More information available from US FCC via Universal Licensing System and Coast Guard Vessel Documentation Center.

Last reported at 2015-Aug-04 06:33 UTC. Time now 2015-Aug-04 07:26 UTC.
Position N 33°46' W 118°13'.

Length 37 m; draft 1.5 m.

Type: Towing. MMSI: 367004270.

Date/timePositionNaut miles runAvg speedWind from/ knotsBaromVisibWave heightAir tempDewpointWater temp
2015-Aug-04 06:33N 33°46' W 118°13'0 0.0
2015-Aug-04 05:34N 33°46' W 118°13'0 0.0
2015-Aug-04 04:33N 33°46' W 118°13'0 0.0
2015-Aug-04 03:33N 33°46' W 118°13'0 0.0
2015-Aug-04 02:34N 33°46' W 118°13'0 0.0
2015-Aug-04 01:34N 33°46' W 118°13'0 0.0
2015-Aug-04 00:33N 33°46' W 118°13'0 0.0
2015-Aug-03 23:34N 33°46' W 118°13'0 0.0
2015-Aug-03 22:34N 33°46' W 118°13'0 0.0
2015-Aug-03 21:33N 33°46' W 118°13'0 0.0
2015-Aug-03 20:33N 33°46' W 118°13'0 0.0
2015-Aug-03 19:33N 33°46' W 118°13'2 1.7
2015-Aug-03 18:34N 33°44' W 118°12'3 2.9
2015-Aug-03 17:33N 33°45' W 118°09'1 0.8
2015-Aug-03 16:33N 33°45' W 118°10'2 2.1
2015-Aug-03 15:33N 33°44' W 118°12'1 0.9
2015-Aug-03 14:34N 33°45' W 118°12'0 0.0
2015-Aug-03 13:28N 33°45' W 118°12'0 0.0
2015-Aug-03 12:32N 33°45' W 118°12'0 0.0
2015-Aug-03 11:25N 33°45' W 118°12'0 0.0
2015-Aug-03 10:32N 33°45' W 118°12'0 0.0
2015-Aug-03 09:33N 33°45' W 118°12'0 0.0
2015-Aug-03 08:33N 33°45' W 118°12'0 0.0
2015-Aug-03 07:33N 33°45' W 118°12'0 0.0
2015-Aug-03 06:31N 33°45' W 118°12'0 0.0
2015-Aug-03 05:28N 33°45' W 118°12'0 0.0
2015-Aug-03 04:30N 33°45' W 118°12'0 0.0
2015-Aug-03 03:32N 33°45' W 118°12'0 0.0
2015-Aug-03 02:33N 33°45' W 118°12'0 0.0
2015-Aug-03 01:33N 33°45' W 118°12'0 0.0
2015-Aug-03 00:33N 33°45' W 118°12'0 0.0
2015-Aug-02 23:31N 33°45' W 118°12'0 0.0
2015-Aug-02 22:33N 33°45' W 118°12'0 0.0
2015-Aug-02 21:33N 33°45' W 118°12'0 0.0
2015-Aug-02 20:26N 33°45' W 118°12'0 0.0
2015-Aug-02 19:26N 33°45' W 118°12'0 0.0
2015-Aug-02 18:20N 33°45' W 118°12'2 1.9
2015-Aug-02 17:32N 33°46' W 118°13'2 1.7
2015-Aug-02 16:33N 33°45' W 118°15'0 0.0
2015-Aug-02 15:17N 33°45' W 118°15'0 0.4
2015-Aug-02 14:33N 33°45' W 118°14'2 1.7
2015-Aug-02 13:30N 33°45' W 118°12'0 0.0
2015-Aug-02 12:32N 33°45' W 118°12'0 0.0
2015-Aug-02 11:27N 33°45' W 118°12'0 0.0
2015-Aug-02 10:33N 33°45' W 118°12'0 0.0
2015-Aug-02 09:32N 33°45' W 118°12'0 0.0
2015-Aug-02 08:29N 33°45' W 118°12'0 0.0
2015-Aug-02 07:32N 33°45' W 118°12'0 0.0
2015-Aug-02 06:26N 33°45' W 118°12'0 0.0
2015-Aug-02 05:20N 33°45' W 118°12'0 0.0
2015-Aug-02 04:33N 33°45' W 118°12'0 0.0
2015-Aug-02 03:33N 33°45' W 118°12'0 0.0
2015-Aug-02 02:33N 33°45' W 118°12'0 0.0
2015-Aug-02 01:29N 33°45' W 118°12'0 0.0
2015-Aug-02 00:29N 33°45' W 118°12'0 0.0
2015-Aug-01 23:33N 33°45' W 118°12'0 0.0
2015-Aug-01 22:31N 33°45' W 118°12'0 0.0
2015-Aug-01 21:26N 33°45' W 118°12'0 0.0
2015-Aug-01 20:33N 33°45' W 118°12'0 0.0
2015-Aug-01 19:32N 33°45' W 118°12'0 0.0
2015-Aug-01 18:27N 33°45' W 118°12'0 0.0
2015-Aug-01 17:23N 33°45' W 118°12'0 0.0
2015-Aug-01 16:29N 33°45' W 118°12'0 0.0
2015-Aug-01 15:33N 33°45' W 118°12'0 0.0
2015-Aug-01 14:29N 33°45' W 118°12'0 0.0
2015-Aug-01 13:23N 33°45' W 118°12'2 1.0
2015-Aug-01 11:10N 33°45' W 118°10'1 1.0
2015-Aug-01 10:05N 33°44' W 118°08'0 0.0
2015-Aug-01 09:20N 33°44' W 118°08'2 0.8
2015-Aug-01 06:33N 33°46' W 118°11'0 0.0
2015-Aug-01 05:33N 33°46' W 118°11'0 0.0
2015-Aug-01 04:33N 33°46' W 118°11'1 1.4
2015-Aug-01 03:33N 33°45' W 118°10'2 2.2
2015-Aug-01 02:33N 33°45' W 118°12'0 0.0
2015-Aug-01 01:33N 33°45' W 118°12'0 0.0
2015-Aug-01 00:33N 33°45' W 118°12'0 0.0
2015-Jul-31 23:33N 33°45' W 118°12'2 2.1
2015-Jul-31 22:33N 33°45' W 118°10'0 0.0
2015-Jul-31 21:28N 33°45' W 118°10'1 1.2
2015-Jul-31 20:33N 33°44' W 118°08'1 1.3
2015-Jul-31 19:32N 33°45' W 118°10'0 0.0
2015-Jul-31 18:33N 33°45' W 118°10'1 0.9
2015-Jul-31 17:21N 33°46' W 118°11'0 0.4
2015-Jul-31 16:33N 33°45' W 118°10'2 1.7
2015-Jul-31 15:32N 33°45' W 118°12'1 0.3
2015-Jul-31 13:33N 33°44' W 118°12'3 1.3
2015-Jul-31 11:10N 33°44' W 118°08'1 1.5
2015-Jul-31 10:31N 33°45' W 118°10'1 0.3
2015-Jul-31 08:33N 33°45' W 118°10'0 0.1
2015-Jul-31 07:32N 33°45' W 118°10'2 0.7
2015-Jul-31 04:32N 33°45' W 118°12'0 0.0
2015-Jul-31 03:32N 33°45' W 118°12'0 0.0
2015-Jul-31 02:33N 33°45' W 118°12'0 0.0
2015-Jul-31 01:29N 33°45' W 118°12'0 0.0
2015-Jul-30 23:22N 33°45' W 118°12'2 2.6
2015-Jul-30 22:33N 33°45' W 118°10'2 1.7
2015-Jul-30 21:13N 33°44' W 118°12'0 0.6
2015-Jul-30 20:33N 33°45' W 118°12'0 0.0
2015-Jul-30 18:24N 33°45' W 118°12'0 0.0
2015-Jul-30 17:33N 33°45' W 118°12'0 0.0
2015-Jul-30 16:29N 33°45' W 118°12'1 1.6
2015-Jul-30 15:33N 33°45' W 118°10'1 1.5
2015-Jul-30 14:33N 33°45' W 118°12'2 2.2
2015-Jul-30 13:33N 33°45' W 118°10'0 0.0
2015-Jul-30 12:17N 33°45' W 118°10'0 0.0
2015-Jul-30 09:33N 33°45' W 118°10'1 0.5
2015-Jul-30 08:19N 33°45' W 118°10'2 0.8
2015-Jul-30 05:31N 33°44' W 118°12'0 0.2
2015-Jul-30 04:23N 33°45' W 118°12'0 0.0
2015-Jul-30 03:31N 33°45' W 118°12'0 0.0
2015-Jul-30 02:33N 33°45' W 118°12'2 1.5
2015-Jul-30 01:32N 33°46' W 118°11'2 1.3
2015-Jul-30 00:16N 33°44' W 118°10'2 2.3
2015-Jul-29 23:33N 33°45' W 118°09'3 3.1
2015-Jul-29 22:33N 33°45' W 118°12'0 0.0
2015-Jul-29 21:33N 33°45' W 118°12'0 0.0
2015-Jul-29 20:33N 33°45' W 118°12'0 0.0
2015-Jul-29 19:24N 33°45' W 118°12'2 2.1
2015-Jul-29 18:24N 33°45' W 118°10'0 0.5
2015-Jul-29 17:33N 33°45' W 118°09'1 1.3
2015-Jul-29 16:33N 33°46' W 118°11'2 1.6
2015-Jul-29 15:33N 33°45' W 118°12'0 0.0
2015-Jul-29 14:11N 33°45' W 118°12'3 4.3
2015-Jul-29 13:26N 33°45' W 118°08'0 0.1
2015-Jul-29 12:33N 33°44' W 118°08'2 0.5
2015-Jul-29 09:16N 33°45' W 118°10'0 0.4
2015-Jul-29 08:18N 33°45' W 118°10'0 0.0
2015-Jul-29 07:28N 33°45' W 118°10'1 0.8
2015-Jul-29 06:22N 33°46' W 118°11'1 0.6
2015-Jul-29 04:21N 33°45' W 118°10'2 2.8
2015-Jul-29 03:33N 33°44' W 118°12'1 0.5
2015-Jul-29 00:32N 33°44' W 118°11'1 0.9
2015-Jul-28 23:33N 33°45' W 118°10'1 0.4
2015-Jul-28 21:33N 33°44' W 118°11'1 1.0
2015-Jul-28 20:08N 33°45' W 118°12'2 2.6
2015-Jul-28 19:33N 33°46' W 118°11'1 0.9
2015-Jul-28 18:28N 33°45' W 118°10'0 0.0
2015-Jul-28 16:28N 33°45' W 118°10'2 1.9
2015-Jul-28 15:25N 33°44' W 118°12'1 1.0
2015-Jul-28 14:33N 33°44' W 118°12'2 2.2
2015-Jul-28 13:32N 33°45' W 118°10'1 1.1
2015-Jul-28 12:32N 33°44' W 118°08'2 1.1
2015-Jul-28 10:21N 33°46' W 118°11'0 0.0
2015-Jul-28 09:32N 33°46' W 118°11'1 0.6
2015-Jul-28 07:17N 33°45' W 118°10'1 1.5
2015-Jul-28 06:21N 33°46' W 118°11'0 0.0
2015-Jul-28 05:33N 33°46' W 118°11'0 0.0
2015-Jul-28 04:33N 33°46' W 118°11'1 1.0
2015-Jul-28 03:30N 33°45' W 118°10'1 1.5
2015-Jul-28 02:33N 33°45' W 118°12'0 0.0
2015-Jul-28 01:33N 33°45' W 118°12'0 0.0
2015-Jul-28 00:32N 33°45' W 118°12'2 1.6
2015-Jul-27 23:33N 33°46' W 118°11'1 1.1
2015-Jul-27 22:33N 33°45' W 118°10'2 1.8
2015-Jul-27 21:27N 33°45' W 118°12'4 3.0
2015-Jul-27 20:14N 33°44' W 118°16'0 0.0
2015-Jul-27 19:33N 33°44' W 118°16'7 3.4
2015-Jul-27 17:33N 33°44' W 118°08'1 1.1
2015-Jul-27 16:33N 33°45' W 118°10'2 1.8
2015-Jul-27 15:22N 33°44' W 118°12'1 0.6
2015-Jul-27 14:16N 33°45' W 118°12'0 0.0
2015-Jul-27 13:32N 33°45' W 118°12'0 0.0
2015-Jul-27 12:26N 33°45' W 118°12'0 0.0
2015-Jul-27 11:33N 33°45' W 118°12'0 0.0
2015-Jul-27 10:33N 33°45' W 118°12'0 0.0
2015-Jul-27 09:33N 33°45' W 118°12'0 0.0
2015-Jul-27 08:33N 33°45' W 118°12'0 0.0
2015-Jul-27 07:32N 33°45' W 118°12'0 0.0
2015-Jul-27 06:32N 33°45' W 118°12'0 0.0
2015-Jul-27 05:30N 33°45' W 118°12'0 0.0
2015-Jul-27 04:33N 33°45' W 118°12'0 0.0
2015-Jul-27 03:33N 33°45' W 118°12'0 0.0
2015-Jul-27 02:33N 33°45' W 118°12'0 0.0
2015-Jul-27 01:29N 33°45' W 118°12'0 0.0
2015-Jul-27 00:24N 33°45' W 118°12'2 2.2
2015-Jul-26 23:33N 33°43' W 118°14'3 3.0
2015-Jul-26 22:33N 33°46' W 118°16'0 0.5
2015-Jul-26 21:33N 33°45' W 118°16'4 3.6
2015-Jul-26 20:33N 33°45' W 118°12'0 0.0
2015-Jul-26 19:25N 33°45' W 118°12'0 0.0
2015-Jul-26 18:33N 33°45' W 118°12'0 0.0
2015-Jul-26 17:33N 33°45' W 118°12'2 1.6
2015-Jul-26 16:33N 33°46' W 118°13'1 0.8
2015-Jul-26 15:33N 33°45' W 118°13'2 1.9
2015-Jul-26 14:32N 33°44' W 118°12'1 1.0
2015-Jul-26 13:29N 33°45' W 118°12'0 0.0
2015-Jul-26 12:33N 33°45' W 118°12'0 0.0
2015-Jul-26 11:33N 33°45' W 118°12'0 0.0
2015-Jul-26 10:33N 33°45' W 118°12'0 0.0
2015-Jul-26 09:33N 33°45' W 118°12'0 0.0
2015-Jul-26 08:33N 33°45' W 118°12'0 0.0
2015-Jul-26 07:33N 33°45' W 118°12'0 0.0
2015-Jul-26 06:33N 33°45' W 118°12'0 0.0
2015-Jul-26 05:34N 33°45' W 118°12'0 0.0
2015-Jul-26 04:34N 33°45' W 118°12'0 0.0
2015-Jul-26 03:33N 33°45' W 118°12'0 0.0
2015-Jul-26 02:33N 33°45' W 118°12'0 0.0
2015-Jul-26 01:33N 33°45' W 118°12'0 0.0
2015-Jul-26 00:33N 33°45' W 118°12'0 0.0
2015-Jul-25 23:34N 33°45' W 118°12'0 0.0
2015-Jul-25 22:25N 33°45' W 118°12'0 0.0
2015-Jul-25 21:33N 33°45' W 118°12'0 0.0
2015-Jul-25 20:33N 33°45' W 118°12'0 0.0
2015-Jul-25 19:33N 33°45' W 118°12'0 0.0
2015-Jul-25 18:33N 33°45' W 118°12'0 0.0
2015-Jul-25 17:34N 33°45' W 118°12'0 0.0
2015-Jul-25 16:33N 33°45' W 118°12'0 0.0
2015-Jul-25 15:33N 33°45' W 118°12'0 0.0
2015-Jul-25 14:33N 33°45' W 118°12'1 1.2
2015-Jul-25 13:33N 33°44' W 118°11'1 1.2
2015-Jul-25 12:28N 33°45' W 118°10'0 0.5
2015-Jul-25 11:33N 33°45' W 118°10'0 0.2
2015-Jul-25 10:34N 33°45' W 118°10'1 0.5
2015-Jul-25 08:32N 33°46' W 118°11'0 0.1
2015-Jul-25 07:32N 33°46' W 118°11'1 1.1
2015-Jul-25 06:33N 33°45' W 118°10'  
Track history (hours):
 
Tides and Currents Weather Stations Pressure Air Temp Water Temp Dewpoint Dewpoint Depression Visibility Wind Speed Wind Dir Waves Ship Positions

Arapaho

Owner: SAUSE BROTHERS OCEAN TOWING CO INC, LONG BEACH, CA. More information available from US FCC via Universal Licensing System and Coast Guard Vessel Documentation Center.

Last reported at 2015-Aug-04 06:33 UTC. Time now 2015-Aug-04 07:26 UTC.
Position N 33°46' W 118°13'.

Length 37 m; draft 1.5 m.

Type: Towing. MMSI: 367004270.

Date/timePositionNaut miles runAvg speedWind from/ knotsBaromVisibWave heightAir tempDewpointWater temp
2015-Aug-04 06:33N 33°46' W 118°13'0 0.0
2015-Aug-04 05:34N 33°46' W 118°13'0 0.0
2015-Aug-04 04:33N 33°46' W 118°13'0 0.0
2015-Aug-04 03:33N 33°46' W 118°13'0 0.0
2015-Aug-04 02:34N 33°46' W 118°13'0 0.0
2015-Aug-04 01:34N 33°46' W 118°13'0 0.0
2015-Aug-04 00:33N 33°46' W 118°13'0 0.0
2015-Aug-03 23:34N 33°46' W 118°13'0 0.0
2015-Aug-03 22:34N 33°46' W 118°13'0 0.0
2015-Aug-03 21:33N 33°46' W 118°13'0 0.0
2015-Aug-03 20:33N 33°46' W 118°13'0 0.0
2015-Aug-03 19:33N 33°46' W 118°13'2 1.7
2015-Aug-03 18:34N 33°44' W 118°12'3 2.9
2015-Aug-03 17:33N 33°45' W 118°09'1 0.8
2015-Aug-03 16:33N 33°45' W 118°10'2 2.1
2015-Aug-03 15:33N 33°44' W 118°12'1 0.9
2015-Aug-03 14:34N 33°45' W 118°12'0 0.0
2015-Aug-03 13:28N 33°45' W 118°12'0 0.0
2015-Aug-03 12:32N 33°45' W 118°12'0 0.0
2015-Aug-03 11:25N 33°45' W 118°12'0 0.0
2015-Aug-03 10:32N 33°45' W 118°12'0 0.0
2015-Aug-03 09:33N 33°45' W 118°12'0 0.0
2015-Aug-03 08:33N 33°45' W 118°12'0 0.0
2015-Aug-03 07:33N 33°45' W 118°12'0 0.0
2015-Aug-03 06:31N 33°45' W 118°12'0 0.0
2015-Aug-03 05:28N 33°45' W 118°12'0 0.0
2015-Aug-03 04:30N 33°45' W 118°12'0 0.0
2015-Aug-03 03:32N 33°45' W 118°12'0 0.0
2015-Aug-03 02:33N 33°45' W 118°12'0 0.0
2015-Aug-03 01:33N 33°45' W 118°12'0 0.0
2015-Aug-03 00:33N 33°45' W 118°12'0 0.0
2015-Aug-02 23:31N 33°45' W 118°12'0 0.0
2015-Aug-02 22:33N 33°45' W 118°12'0 0.0
2015-Aug-02 21:33N 33°45' W 118°12'0 0.0
2015-Aug-02 20:26N 33°45' W 118°12'0 0.0
2015-Aug-02 19:26N 33°45' W 118°12'0 0.0
2015-Aug-02 18:20N 33°45' W 118°12'2 1.9
2015-Aug-02 17:32N 33°46' W 118°13'2 1.7
2015-Aug-02 16:33N 33°45' W 118°15'0 0.0
2015-Aug-02 15:17N 33°45' W 118°15'0 0.4
2015-Aug-02 14:33N 33°45' W 118°14'2 1.7
2015-Aug-02 13:30N 33°45' W 118°12'0 0.0
2015-Aug-02 12:32N 33°45' W 118°12'0 0.0
2015-Aug-02 11:27N 33°45' W 118°12'0 0.0
2015-Aug-02 10:33N 33°45' W 118°12'0 0.0
2015-Aug-02 09:32N 33°45' W 118°12'0 0.0
2015-Aug-02 08:29N 33°45' W 118°12'0 0.0
2015-Aug-02 07:32N 33°45' W 118°12'0 0.0
2015-Aug-02 06:26N 33°45' W 118°12'0 0.0
2015-Aug-02 05:20N 33°45' W 118°12'0 0.0
2015-Aug-02 04:33N 33°45' W 118°12'0 0.0
2015-Aug-02 03:33N 33°45' W 118°12'0 0.0
2015-Aug-02 02:33N 33°45' W 118°12'0 0.0
2015-Aug-02 01:29N 33°45' W 118°12'0 0.0
2015-Aug-02 00:29N 33°45' W 118°12'0 0.0
2015-Aug-01 23:33N 33°45' W 118°12'0 0.0
2015-Aug-01 22:31N 33°45' W 118°12'0 0.0
2015-Aug-01 21:26N 33°45' W 118°12'0 0.0
2015-Aug-01 20:33N 33°45' W 118°12'0 0.0
2015-Aug-01 19:32N 33°45' W 118°12'0 0.0
2015-Aug-01 18:27N 33°45' W 118°12'0 0.0
2015-Aug-01 17:23N 33°45' W 118°12'0 0.0
2015-Aug-01 16:29N 33°45' W 118°12'0 0.0
2015-Aug-01 15:33N 33°45' W 118°12'0 0.0
2015-Aug-01 14:29N 33°45' W 118°12'0 0.0
2015-Aug-01 13:23N 33°45' W 118°12'2 1.0
2015-Aug-01 11:10N 33°45' W 118°10'1 1.0
2015-Aug-01 10:05N 33°44' W 118°08'0 0.0
2015-Aug-01 09:20N 33°44' W 118°08'2 0.8
2015-Aug-01 06:33N 33°46' W 118°11'0 0.0
2015-Aug-01 05:33N 33°46' W 118°11'0 0.0
2015-Aug-01 04:33N 33°46' W 118°11'1 1.4
2015-Aug-01 03:33N 33°45' W 118°10'2 2.2
2015-Aug-01 02:33N 33°45' W 118°12'0 0.0
2015-Aug-01 01:33N 33°45' W 118°12'0 0.0
2015-Aug-01 00:33N 33°45' W 118°12'0 0.0
2015-Jul-31 23:33N 33°45' W 118°12'2 2.1
2015-Jul-31 22:33N 33°45' W 118°10'0 0.0
2015-Jul-31 21:28N 33°45' W 118°10'1 1.2
2015-Jul-31 20:33N 33°44' W 118°08'1 1.3
2015-Jul-31 19:32N 33°45' W 118°10'0 0.0
2015-Jul-31 18:33N 33°45' W 118°10'1 0.9
2015-Jul-31 17:21N 33°46' W 118°11'0 0.4
2015-Jul-31 16:33N 33°45' W 118°10'2 1.7
2015-Jul-31 15:32N 33°45' W 118°12'1 0.3
2015-Jul-31 13:33N 33°44' W 118°12'3 1.3
2015-Jul-31 11:10N 33°44' W 118°08'1 1.5
2015-Jul-31 10:31N 33°45' W 118°10'1 0.3
2015-Jul-31 08:33N 33°45' W 118°10'0 0.1
2015-Jul-31 07:32N 33°45' W 118°10'2 0.7
2015-Jul-31 04:32N 33°45' W 118°12'0 0.0
2015-Jul-31 03:32N 33°45' W 118°12'0 0.0
2015-Jul-31 02:33N 33°45' W 118°12'0 0.0
2015-Jul-31 01:29N 33°45' W 118°12'0 0.0
2015-Jul-30 23:22N 33°45' W 118°12'2 2.6
2015-Jul-30 22:33N 33°45' W 118°10'2 1.7
2015-Jul-30 21:13N 33°44' W 118°12'0 0.6
2015-Jul-30 20:33N 33°45' W 118°12'0 0.0
2015-Jul-30 18:24N 33°45' W 118°12'0 0.0
2015-Jul-30 17:33N 33°45' W 118°12'0 0.0
2015-Jul-30 16:29N 33°45' W 118°12'1 1.6
2015-Jul-30 15:33N 33°45' W 118°10'1 1.5
2015-Jul-30 14:33N 33°45' W 118°12'2 2.2
2015-Jul-30 13:33N 33°45' W 118°10'0 0.0
2015-Jul-30 12:17N 33°45' W 118°10'0 0.0
2015-Jul-30 09:33N 33°45' W 118°10'1 0.5
2015-Jul-30 08:19N 33°45' W 118°10'2 0.8
2015-Jul-30 05:31N 33°44' W 118°12'0 0.2
2015-Jul-30 04:23N 33°45' W 118°12'0 0.0
2015-Jul-30 03:31N 33°45' W 118°12'0 0.0
2015-Jul-30 02:33N 33°45' W 118°12'2 1.5
2015-Jul-30 01:32N 33°46' W 118°11'2 1.3
2015-Jul-30 00:16N 33°44' W 118°10'2 2.3
2015-Jul-29 23:33N 33°45' W 118°09'3 3.1
2015-Jul-29 22:33N 33°45' W 118°12'0 0.0
2015-Jul-29 21:33N 33°45' W 118°12'0 0.0
2015-Jul-29 20:33N 33°45' W 118°12'0 0.0
2015-Jul-29 19:24N 33°45' W 118°12'2 2.1
2015-Jul-29 18:24N 33°45' W 118°10'0 0.5
2015-Jul-29 17:33N 33°45' W 118°09'1 1.3
2015-Jul-29 16:33N 33°46' W 118°11'2 1.6
2015-Jul-29 15:33N 33°45' W 118°12'0 0.0
2015-Jul-29 14:11N 33°45' W 118°12'3 4.3
2015-Jul-29 13:26N 33°45' W 118°08'0 0.1
2015-Jul-29 12:33N 33°44' W 118°08'2 0.5
2015-Jul-29 09:16N 33°45' W 118°10'0 0.4
2015-Jul-29 08:18N 33°45' W 118°10'0 0.0
2015-Jul-29 07:28N 33°45' W 118°10'1 0.8
2015-Jul-29 06:22N 33°46' W 118°11'1 0.6
2015-Jul-29 04:21N 33°45' W 118°10'2 2.8
2015-Jul-29 03:33N 33°44' W 118°12'1 0.5
2015-Jul-29 00:32N 33°44' W 118°11'1 0.9
2015-Jul-28 23:33N 33°45' W 118°10'1 0.4
2015-Jul-28 21:33N 33°44' W 118°11'1 1.0
2015-Jul-28 20:08N 33°45' W 118°12'2 2.6
2015-Jul-28 19:33N 33°46' W 118°11'1 0.9
2015-Jul-28 18:28N 33°45' W 118°10'0 0.0
2015-Jul-28 16:28N 33°45' W 118°10'2 1.9
2015-Jul-28 15:25N 33°44' W 118°12'1 1.0
2015-Jul-28 14:33N 33°44' W 118°12'2 2.2
2015-Jul-28 13:32N 33°45' W 118°10'1 1.1
2015-Jul-28 12:32N 33°44' W 118°08'2 1.1
2015-Jul-28 10:21N 33°46' W 118°11'0 0.0
2015-Jul-28 09:32N 33°46' W 118°11'1 0.6
2015-Jul-28 07:17N 33°45' W 118°10'1 1.5
2015-Jul-28 06:21N 33°46' W 118°11'0 0.0
2015-Jul-28 05:33N 33°46' W 118°11'0 0.0
2015-Jul-28 04:33N 33°46' W 118°11'1 1.0
2015-Jul-28 03:30N 33°45' W 118°10'1 1.5
2015-Jul-28 02:33N 33°45' W 118°12'0 0.0
2015-Jul-28 01:33N 33°45' W 118°12'0 0.0
2015-Jul-28 00:32N 33°45' W 118°12'2 1.6
2015-Jul-27 23:33N 33°46' W 118°11'1 1.1
2015-Jul-27 22:33N 33°45' W 118°10'2 1.8
2015-Jul-27 21:27N 33°45' W 118°12'4 3.0
2015-Jul-27 20:14N 33°44' W 118°16'0 0.0
2015-Jul-27 19:33N 33°44' W 118°16'7 3.4
2015-Jul-27 17:33N 33°44' W 118°08'1 1.1
2015-Jul-27 16:33N 33°45' W 118°10'2 1.8
2015-Jul-27 15:22N 33°44' W 118°12'1 0.6
2015-Jul-27 14:16N 33°45' W 118°12'0 0.0
2015-Jul-27 13:32N 33°45' W 118°12'0 0.0
2015-Jul-27 12:26N 33°45' W 118°12'0 0.0
2015-Jul-27 11:33N 33°45' W 118°12'0 0.0
2015-Jul-27 10:33N 33°45' W 118°12'0 0.0
2015-Jul-27 09:33N 33°45' W 118°12'0 0.0
2015-Jul-27 08:33N 33°45' W 118°12'0 0.0
2015-Jul-27 07:32N 33°45' W 118°12'0 0.0
2015-Jul-27 06:32N 33°45' W 118°12'0 0.0
2015-Jul-27 05:30N 33°45' W 118°12'0 0.0
2015-Jul-27 04:33N 33°45' W 118°12'0 0.0
2015-Jul-27 03:33N 33°45' W 118°12'0 0.0
2015-Jul-27 02:33N 33°45' W 118°12'0 0.0
2015-Jul-27 01:29N 33°45' W 118°12'0 0.0
2015-Jul-27 00:24N 33°45' W 118°12'2 2.2
2015-Jul-26 23:33N 33°43' W 118°14'3 3.0
2015-Jul-26 22:33N 33°46' W 118°16'0 0.5
2015-Jul-26 21:33N 33°45' W 118°16'4 3.6
2015-Jul-26 20:33N 33°45' W 118°12'0 0.0
2015-Jul-26 19:25N 33°45' W 118°12'0 0.0
2015-Jul-26 18:33N 33°45' W 118°12'0 0.0
2015-Jul-26 17:33N 33°45' W 118°12'2 1.6
2015-Jul-26 16:33N 33°46' W 118°13'1 0.8
2015-Jul-26 15:33N 33°45' W 118°13'2 1.9
2015-Jul-26 14:32N 33°44' W 118°12'1 1.0
2015-Jul-26 13:29N 33°45' W 118°12'0 0.0
2015-Jul-26 12:33N 33°45' W 118°12'0 0.0
2015-Jul-26 11:33N 33°45' W 118°12'0 0.0
2015-Jul-26 10:33N 33°45' W 118°12'0 0.0
2015-Jul-26 09:33N 33°45' W 118°12'0 0.0
2015-Jul-26 08:33N 33°45' W 118°12'0 0.0
2015-Jul-26 07:33N 33°45' W 118°12'0 0.0
2015-Jul-26 06:33N 33°45' W 118°12'0 0.0
2015-Jul-26 05:34N 33°45' W 118°12'0 0.0
2015-Jul-26 04:34N 33°45' W 118°12'0 0.0
2015-Jul-26 03:33N 33°45' W 118°12'0 0.0
2015-Jul-26 02:33N 33°45' W 118°12'0 0.0
2015-Jul-26 01:33N 33°45' W 118°12'0 0.0
2015-Jul-26 00:33N 33°45' W 118°12'0 0.0
2015-Jul-25 23:34N 33°45' W 118°12'0 0.0
2015-Jul-25 22:25N 33°45' W 118°12'0 0.0
2015-Jul-25 21:33N 33°45' W 118°12'0 0.0
2015-Jul-25 20:33N 33°45' W 118°12'0 0.0
2015-Jul-25 19:33N 33°45' W 118°12'0 0.0
2015-Jul-25 18:33N 33°45' W 118°12'0 0.0
2015-Jul-25 17:34N 33°45' W 118°12'0 0.0
2015-Jul-25 16:33N 33°45' W 118°12'0 0.0
2015-Jul-25 15:33N 33°45' W 118°12'0 0.0
2015-Jul-25 14:33N 33°45' W 118°12'1 1.2
2015-Jul-25 13:33N 33°44' W 118°11'1 1.2
2015-Jul-25 12:28N 33°45' W 118°10'0 0.5
2015-Jul-25 11:33N 33°45' W 118°10'0 0.2
2015-Jul-25 10:34N 33°45' W 118°10'1 0.5
2015-Jul-25 08:32N 33°46' W 118°11'0 0.1
2015-Jul-25 07:32N 33°46' W 118°11'1 1.1
2015-Jul-25 06:33N 33°45' W 118°10'  

Dump ship's entire track history